Kettle Falls, Washington
Current Conditions -  °F | °C
As of 12:00 PM on Thursday 23 Oct 2014 (Local Time) from CYCG Reporting Station
Broken Clouds Broken Clouds  
Wind Chill: 12°   Ceiling: 4200
Heat Index: 12°   Visibility: 15mi
Dew Point:   Wind: 7mph
Humidity: 82%   Direction: 190°S
Pressure: 29.76"   Gusts: NA
Location:  48.61°N, 118.06°W
Report Text: CYCG 231900Z 19006KT 15SM FEW005 BKN042 BKN075 12/09 A2976 RMK SF1SC4AC2 SLP083 DENSITY ALT 1700FT
Loading
Personal Weather Stations






























Interactive Weather Map
Tropical Storm Tracking
New forecast layout! Learn more

10-Day Weather Forecast

Advertisements
Track Severe Weather on mobile